APL Coral — WDF6832 — position and weather

sailwx.info

Track history (hours):
 
Tides and Currents Weather Stations Pressure Air Temp Water Temp Dewpoint Dewpoint Depression Visibility Wind Speed Wind Dir Waves Ship Positions

APL Coral

Owner: APL Maritime Ltd., Bethesda, MD. More information available from US FCC via Universal Licensing System and Coast Guard Vessel Documentation Center.

Last reported at 2015-Aug-28 00:00 UTC. Time now 2015-Aug-31 04:42 UTC.
Position N 12°12' E 046°24'.

Length 275 m; draft 12.6 m.

Type: Cargo ship. MMSI: 367478280.

Wind from 100 at 7 knots

Barometer 1005.0 mb
Air temperature 31.0 ° C
Dewpoint 28.3 ° C
Water temperature 31.0 ° C

Date/timePositionNaut miles runAvg speedWind from/ knotsBaromVisibWave heightAir tempDewpointWater temp
2015-Aug-28 00:00N 12°12' E 046°24'   100 / 71005.0 31.028.331.0
2015-Aug-25 06:00N 25°48' E 035°18'10016.6 310 / 171007.0 5.4 2.030.024.331.0
2015-Aug-25 00:00N 27°12' E 034°18'272 9.7 1006.010.8 29.024.831.0
2015-Aug-23 20:05N 31°24' E 032°20'0 0.0
2015-Aug-23 19:33N 31°24' E 032°20'30 1.0
2015-Aug-22 14:24N 31°36' E 031°47'1111.2
2015-Aug-22 13:27N 31°45' E 031°41'1516.2
2015-Aug-22 12:32N 31°56' E 031°29'1615.9
2015-Aug-22 11:33N 32°03' E 031°13'1616.2
2015-Aug-22 10:33N 32°08' E 030°55'1616.4
2015-Aug-22 09:33N 32°13' E 030°36'76119.3
2015-Aug-20 18:05N 36°03' E 015°60'3220.1
2015-Aug-20 16:30N 36°13' E 015°23'1919.8
2015-Aug-20 15:33N 36°19' E 015°01'2020.1
2015-Aug-20 14:34N 36°25' E 014°37'2020.0
2015-Aug-20 13:33N 36°35' E 014°15'2019.7
2015-Aug-20 12:34N 36°43' E 013°53'2020.1
2015-Aug-20 11:33N 36°55' E 013°32'2019.9
2015-Aug-20 10:33N 37°05' E 013°11'2019.6
2015-Aug-20 09:33N 37°15' E 012°49'2019.6
2015-Aug-20 08:31N 37°25' E 012°27'1920.0
2015-Aug-20 07:33N 37°37' E 012°08'8820.3
2015-Aug-20 03:14N 38°24' E 010°34'1420.0
2015-Aug-20 02:33N 38°31' E 010°19'2120.0
2015-Aug-20 01:30N 38°43' E 009°57'2019.9
2015-Aug-20 00:31N 38°53' E 009°35'1919.1
2015-Aug-19 23:32N 39°03' E 009°15'10 9.7
2015-Aug-19 22:33N 39°09' E 009°06'4 3.5
2015-Aug-19 21:29N 39°13' E 009°04'0 0.0
2015-Aug-19 20:32N 39°13' E 009°04'0 0.0
2015-Aug-19 19:29N 39°13' E 009°04'0 0.0
2015-Aug-19 18:32N 39°13' E 009°04'0 0.0
2015-Aug-19 17:32N 39°13' E 009°04'0 0.0
2015-Aug-19 16:32N 39°13' E 009°04'0 0.0
2015-Aug-19 15:32N 39°13' E 009°04'0 0.0
2015-Aug-19 14:32N 39°13' E 009°04'0 0.0
2015-Aug-19 13:32N 39°13' E 009°04'0 0.0
2015-Aug-19 12:32N 39°13' E 009°04'0 0.0
2015-Aug-19 11:32N 39°13' E 009°04'0 0.0
2015-Aug-19 10:32N 39°13' E 009°04'0 0.0
2015-Aug-19 09:32N 39°13' E 009°04'0 0.0
2015-Aug-19 08:32N 39°13' E 009°04'0 0.0
2015-Aug-19 07:32N 39°13' E 009°04'0 0.0
2015-Aug-19 06:32N 39°13' E 009°04'0 0.0
2015-Aug-19 05:32N 39°13' E 009°04'0 0.0
2015-Aug-19 04:32N 39°13' E 009°04'0 0.0
2015-Aug-19 03:32N 39°13' E 009°04'1 0.8
2015-Aug-19 02:32N 39°12' E 009°05'6 6.0
2015-Aug-19 01:33N 39°07' E 009°07'1010.4
2015-Aug-19 00:33N 38°56' E 009°06'1515.3
2015-Aug-18 23:33N 38°43' E 008°56'1515.5
2015-Aug-18 22:34N 38°41' E 008°37'19115.8
2015-Aug-18 10:26N 38°17' E 004°34'3015.6
2015-Aug-18 08:30N 38°13' E 003°56'1515.7
2015-Aug-18 07:32N 38°11' E 003°37'1615.3
2015-Aug-18 06:28N 38°06' E 003°17'1615.2
2015-Aug-18 05:27N 37°59' E 002°59'1515.5
2015-Aug-18 04:29N 37°53' E 002°42'515.6
2015-Aug-18 04:11N 37°52' E 002°36'115.7
2015-Aug-18 04:08N 37°51' E 002°35'915.7
2015-Aug-18 03:33N 37°47' E 002°25'1615.7
2015-Aug-18 02:33N 37°41' E 002°07'2115.7
2015-Aug-18 01:14N 37°33' E 001°43'1115.7
2015-Aug-18 00:33N 37°29' E 001°30'1119.6
2015-Aug-18 00:00N 37°24' E 001°18'   250 / 101013.010.8 1.026.023.128.0
Track history (hours):
 
Tides and Currents Weather Stations Pressure Air Temp Water Temp Dewpoint Dewpoint Depression Visibility Wind Speed Wind Dir Waves Ship Positions

APL Coral

Owner: APL Maritime Ltd., Bethesda, MD. More information available from US FCC via Universal Licensing System and Coast Guard Vessel Documentation Center.

Last reported at 2015-Aug-28 00:00 UTC. Time now 2015-Aug-31 04:42 UTC.
Position N 12°12' E 046°24'.

Length 275 m; draft 12.6 m.

Type: Cargo ship. MMSI: 367478280.

Wind from 100 at 7 knots

Barometer 1005.0 mb
Air temperature 31.0 ° C
Dewpoint 28.3 ° C
Water temperature 31.0 ° C

Date/timePositionNaut miles runAvg speedWind from/ knotsBaromVisibWave heightAir tempDewpointWater temp
2015-Aug-28 00:00N 12°12' E 046°24'   100 / 71005.0 31.028.331.0
2015-Aug-25 06:00N 25°48' E 035°18'10016.6 310 / 171007.0 5.4 2.030.024.331.0
2015-Aug-25 00:00N 27°12' E 034°18'272 9.7 1006.010.8 29.024.831.0
2015-Aug-23 20:05N 31°24' E 032°20'0 0.0
2015-Aug-23 19:33N 31°24' E 032°20'30 1.0
2015-Aug-22 14:24N 31°36' E 031°47'1111.2
2015-Aug-22 13:27N 31°45' E 031°41'1516.2
2015-Aug-22 12:32N 31°56' E 031°29'1615.9
2015-Aug-22 11:33N 32°03' E 031°13'1616.2
2015-Aug-22 10:33N 32°08' E 030°55'1616.4
2015-Aug-22 09:33N 32°13' E 030°36'76119.3
2015-Aug-20 18:05N 36°03' E 015°60'3220.1
2015-Aug-20 16:30N 36°13' E 015°23'1919.8
2015-Aug-20 15:33N 36°19' E 015°01'2020.1
2015-Aug-20 14:34N 36°25' E 014°37'2020.0
2015-Aug-20 13:33N 36°35' E 014°15'2019.7
2015-Aug-20 12:34N 36°43' E 013°53'2020.1
2015-Aug-20 11:33N 36°55' E 013°32'2019.9
2015-Aug-20 10:33N 37°05' E 013°11'2019.6
2015-Aug-20 09:33N 37°15' E 012°49'2019.6
2015-Aug-20 08:31N 37°25' E 012°27'1920.0
2015-Aug-20 07:33N 37°37' E 012°08'8820.3
2015-Aug-20 03:14N 38°24' E 010°34'1420.0
2015-Aug-20 02:33N 38°31' E 010°19'2120.0
2015-Aug-20 01:30N 38°43' E 009°57'2019.9
2015-Aug-20 00:31N 38°53' E 009°35'1919.1
2015-Aug-19 23:32N 39°03' E 009°15'10 9.7
2015-Aug-19 22:33N 39°09' E 009°06'4 3.5
2015-Aug-19 21:29N 39°13' E 009°04'0 0.0
2015-Aug-19 20:32N 39°13' E 009°04'0 0.0
2015-Aug-19 19:29N 39°13' E 009°04'0 0.0
2015-Aug-19 18:32N 39°13' E 009°04'0 0.0
2015-Aug-19 17:32N 39°13' E 009°04'0 0.0
2015-Aug-19 16:32N 39°13' E 009°04'0 0.0
2015-Aug-19 15:32N 39°13' E 009°04'0 0.0
2015-Aug-19 14:32N 39°13' E 009°04'0 0.0
2015-Aug-19 13:32N 39°13' E 009°04'0 0.0
2015-Aug-19 12:32N 39°13' E 009°04'0 0.0
2015-Aug-19 11:32N 39°13' E 009°04'0 0.0
2015-Aug-19 10:32N 39°13' E 009°04'0 0.0
2015-Aug-19 09:32N 39°13' E 009°04'0 0.0
2015-Aug-19 08:32N 39°13' E 009°04'0 0.0
2015-Aug-19 07:32N 39°13' E 009°04'0 0.0
2015-Aug-19 06:32N 39°13' E 009°04'0 0.0
2015-Aug-19 05:32N 39°13' E 009°04'0 0.0
2015-Aug-19 04:32N 39°13' E 009°04'0 0.0
2015-Aug-19 03:32N 39°13' E 009°04'1 0.8
2015-Aug-19 02:32N 39°12' E 009°05'6 6.0
2015-Aug-19 01:33N 39°07' E 009°07'1010.4
2015-Aug-19 00:33N 38°56' E 009°06'1515.3
2015-Aug-18 23:33N 38°43' E 008°56'1515.5
2015-Aug-18 22:34N 38°41' E 008°37'19115.8
2015-Aug-18 10:26N 38°17' E 004°34'3015.6
2015-Aug-18 08:30N 38°13' E 003°56'1515.7
2015-Aug-18 07:32N 38°11' E 003°37'1615.3
2015-Aug-18 06:28N 38°06' E 003°17'1615.2
2015-Aug-18 05:27N 37°59' E 002°59'1515.5
2015-Aug-18 04:29N 37°53' E 002°42'515.6
2015-Aug-18 04:11N 37°52' E 002°36'115.7
2015-Aug-18 04:08N 37°51' E 002°35'915.7
2015-Aug-18 03:33N 37°47' E 002°25'1615.7
2015-Aug-18 02:33N 37°41' E 002°07'2115.7
2015-Aug-18 01:14N 37°33' E 001°43'1115.7
2015-Aug-18 00:33N 37°29' E 001°30'1119.6
2015-Aug-18 00:00N 37°24' E 001°18'   250 / 101013.010.8 1.026.023.128.0

Dump ship's entire track history